Aviation Digital Data Service (ADDS)

Output produced by METARs form (1540 UTC 28 November 2014)
found at http://aviationweather.gov/adds/metars/
 
KINT 281132Z 2812/2912 32009KT P6SM SKC 
     FM282100 22003KT P6SM SCT080